sensor_id;sensor_type;location;lat;lon;timestamp;noise_LAeq;noise_LA_min;noise_LA_max;noise_LA01;noise_LA95
186;Laerm;55473;48.800;9.002;2023-08-17T00:02:21;42.28;35.44;58.83;;
186;Laerm;55473;48.800;9.002;2023-08-17T00:04:47;42.40;35.19;58.41;;
186;Laerm;55473;48.800;9.002;2023-08-17T00:07:13;42.62;35.72;56.86;;
186;Laerm;55473;48.800;9.002;2023-08-17T00:09:39;43.08;36.20;60.97;;
186;Laerm;55473;48.800;9.002;2023-08-17T00:12:05;45.30;39.10;64.31;;
186;Laerm;55473;48.800;9.002;2023-08-17T00:14:31;45.20;38.21;66.01;;
186;Laerm;55473;48.800;9.002;2023-08-17T00:16:57;43.24;36.85;61.87;;
186;Laerm;55473;48.800;9.002;2023-08-17T00:19:23;42.80;35.63;59.31;;
186;Laerm;55473;48.800;9.002;2023-08-17T00:21:51;43.00;35.79;63.18;;
186;Laerm;55473;48.800;9.002;2023-08-17T00:24:16;42.57;35.87;57.72;;
186;Laerm;55473;48.800;9.002;2023-08-17T00:26:42;42.38;34.86;59.83;;
186;Laerm;55473;48.800;9.002;2023-08-17T00:29:08;42.47;35.18;60.64;;
186;Laerm;55473;48.800;9.002;2023-08-17T00:31:34;42.22;34.86;60.89;;
186;Laerm;55473;48.800;9.002;2023-08-17T00:34:00;42.48;35.24;59.83;;
186;Laerm;55473;48.800;9.002;2023-08-17T00:36:25;42.51;34.89;56.40;;
186;Laerm;55473;48.800;9.002;2023-08-17T00:38:51;42.45;35.64;60.45;;
186;Laerm;55473;48.800;9.002;2023-08-17T00:41:17;42.29;35.14;61.89;;
186;Laerm;55473;48.800;9.002;2023-08-17T00:43:43;42.05;34.69;60.00;;
186;Laerm;55473;48.800;9.002;2023-08-17T00:46:10;42.25;34.99;58.21;;
186;Laerm;55473;48.800;9.002;2023-08-17T00:48:37;42.55;35.59;56.68;;
186;Laerm;55473;48.800;9.002;2023-08-17T00:51:03;42.23;35.15;60.53;;
186;Laerm;55473;48.800;9.002;2023-08-17T00:53:32;42.72;36.13;61.56;;
186;Laerm;55473;48.800;9.002;2023-08-17T00:56:01;42.42;35.48;60.71;;
186;Laerm;55473;48.800;9.002;2023-08-17T00:58:27;42.41;35.49;59.22;;
186;Laerm;55473;48.800;9.002;2023-08-17T01:00:54;42.33;35.28;61.43;;
186;Laerm;55473;48.800;9.002;2023-08-17T01:03:22;42.31;35.48;60.84;;
186;Laerm;55473;48.800;9.002;2023-08-17T01:05:48;42.28;34.77;60.91;;
186;Laerm;55473;48.800;9.002;2023-08-17T01:08:14;42.20;34.97;56.80;;
186;Laerm;55473;48.800;9.002;2023-08-17T01:16:26;42.27;34.99;60.45;;
186;Laerm;55473;48.800;9.002;2023-08-17T01:18:55;42.39;35.24;59.19;;
186;Laerm;55473;48.800;9.002;2023-08-17T01:21:24;42.27;35.49;59.47;;
186;Laerm;55473;48.800;9.002;2023-08-17T01:23:58;42.48;35.18;61.82;;
186;Laerm;55473;48.800;9.002;2023-08-17T01:26:26;42.50;35.65;59.41;;
186;Laerm;55473;48.800;9.002;2023-08-17T01:28:52;42.11;34.65;60.33;;
186;Laerm;55473;48.800;9.002;2023-08-17T01:32:02;42.20;34.98;57.04;;
186;Laerm;55473;48.800;9.002;2023-08-17T01:34:28;42.05;34.82;58.43;;
186;Laerm;55473;48.800;9.002;2023-08-17T01:37:00;42.03;35.26;58.18;;
186;Laerm;55473;48.800;9.002;2023-08-17T01:39:42;41.88;35.06;58.79;;
186;Laerm;55473;48.800;9.002;2023-08-17T01:42:10;41.97;35.11;59.90;;
186;Laerm;55473;48.800;9.002;2023-08-17T01:44:39;41.77;34.99;55.45;;
186;Laerm;55473;48.800;9.002;2023-08-17T01:47:05;41.56;34.66;59.63;;
186;Laerm;55473;48.800;9.002;2023-08-17T01:49:31;41.86;34.33;60.31;;
186;Laerm;55473;48.800;9.002;2023-08-17T01:51:57;41.83;34.81;62.54;;
186;Laerm;55473;48.800;9.002;2023-08-17T01:54:23;41.73;35.10;56.53;;
186;Laerm;55473;48.800;9.002;2023-08-17T01:56:50;41.65;34.73;53.58;;
186;Laerm;55473;48.800;9.002;2023-08-17T01:59:15;41.61;34.74;58.72;;
186;Laerm;55473;48.800;9.002;2023-08-17T02:01:41;42.06;35.20;64.84;;
186;Laerm;55473;48.800;9.002;2023-08-17T02:04:07;44.62;35.26;60.07;;
186;Laerm;55473;48.800;9.002;2023-08-17T02:06:33;41.55;35.09;54.53;;
186;Laerm;55473;48.800;9.002;2023-08-17T02:08:59;48.07;35.46;75.82;;
186;Laerm;55473;48.800;9.002;2023-08-17T02:11:25;42.39;35.25;60.31;;
186;Laerm;55473;48.800;9.002;2023-08-17T02:13:51;41.71;34.94;59.32;;
186;Laerm;55473;48.800;9.002;2023-08-17T02:16:16;41.92;35.36;58.68;;
186;Laerm;55473;48.800;9.002;2023-08-17T02:18:42;41.62;34.62;60.56;;
186;Laerm;55473;48.800;9.002;2023-08-17T02:21:08;41.60;35.03;58.33;;
186;Laerm;55473;48.800;9.002;2023-08-17T02:23:35;41.74;34.23;63.01;;
186;Laerm;55473;48.800;9.002;2023-08-17T02:26:01;41.53;35.04;55.58;;
186;Laerm;55473;48.800;9.002;2023-08-17T02:28:27;41.82;34.79;55.17;;
186;Laerm;55473;48.800;9.002;2023-08-17T02:30:57;42.13;34.79;60.30;;
186;Laerm;55473;48.800;9.002;2023-08-17T02:33:24;41.68;33.93;56.88;;
186;Laerm;55473;48.800;9.002;2023-08-17T02:35:51;41.60;34.62;57.69;;
186;Laerm;55473;48.800;9.002;2023-08-17T02:38:17;41.70;35.11;55.40;;
186;Laerm;55473;48.800;9.002;2023-08-17T02:40:43;41.78;34.93;51.26;;
186;Laerm;55473;48.800;9.002;2023-08-17T02:43:09;41.67;35.15;53.60;;
186;Laerm;55473;48.800;9.002;2023-08-17T02:45:35;41.74;35.38;54.40;;
186;Laerm;55473;48.800;9.002;2023-08-17T02:48:01;45.20;34.35;55.96;;
186;Laerm;55473;48.800;9.002;2023-08-17T02:50:27;43.15;35.31;56.59;;
186;Laerm;55473;48.800;9.002;2023-08-17T02:52:53;41.72;34.70;53.39;;
186;Laerm;55473;48.800;9.002;2023-08-17T02:55:19;44.31;35.99;56.17;;
186;Laerm;55473;48.800;9.002;2023-08-17T02:57:45;42.03;34.66;60.16;;
186;Laerm;55473;48.800;9.002;2023-08-17T03:00:11;53.60;36.21;62.51;;
186;Laerm;55473;48.800;9.002;2023-08-17T03:02:37;42.26;36.24;55.32;;
186;Laerm;55473;48.800;9.002;2023-08-17T03:05:04;44.94;36.04;58.93;;
186;Laerm;55473;48.800;9.002;2023-08-17T03:07:29;42.66;35.32;53.79;;
186;Laerm;55473;48.800;9.002;2023-08-17T03:09:55;42.05;34.73;57.47;;
186;Laerm;55473;48.800;9.002;2023-08-17T03:12:21;41.93;35.51;56.97;;
186;Laerm;55473;48.800;9.002;2023-08-17T03:14:47;43.28;35.21;57.34;;
186;Laerm;55473;48.800;9.002;2023-08-17T03:17:13;42.84;35.55;55.93;;
186;Laerm;55473;48.800;9.002;2023-08-17T03:19:39;44.18;34.71;54.72;;
186;Laerm;55473;48.800;9.002;2023-08-17T03:22:04;41.86;35.33;53.03;;
186;Laerm;55473;48.800;9.002;2023-08-17T03:24:30;41.54;34.84;51.45;;
186;Laerm;55473;48.800;9.002;2023-08-17T03:26:56;41.71;35.65;53.67;;
186;Laerm;55473;48.800;9.002;2023-08-17T03:29:22;42.59;35.33;53.51;;
186;Laerm;55473;48.800;9.002;2023-08-17T03:31:48;47.87;38.53;56.76;;
186;Laerm;55473;48.800;9.002;2023-08-17T03:34:15;47.75;37.18;59.54;;
186;Laerm;55473;48.800;9.002;2023-08-17T03:36:41;41.87;35.25;56.53;;
186;Laerm;55473;48.800;9.002;2023-08-17T03:39:07;41.81;35.06;55.77;;
186;Laerm;55473;48.800;9.002;2023-08-17T03:41:33;43.80;35.10;68.79;;
186;Laerm;55473;48.800;9.002;2023-08-17T03:43:59;45.72;36.12;55.68;;
186;Laerm;55473;48.800;9.002;2023-08-17T03:46:25;42.14;36.14;55.33;;
186;Laerm;55473;48.800;9.002;2023-08-17T03:48:51;46.40;36.05;57.40;;
186;Laerm;55473;48.800;9.002;2023-08-17T03:51:17;42.60;36.90;58.72;;
186;Laerm;55473;48.800;9.002;2023-08-17T03:53:43;42.14;36.05;55.57;;
186;Laerm;55473;48.800;9.002;2023-08-17T03:56:08;42.26;36.12;56.04;;
186;Laerm;55473;48.800;9.002;2023-08-17T03:58:34;44.95;36.70;57.67;;
186;Laerm;55473;48.800;9.002;2023-08-17T04:01:00;42.21;36.73;52.50;;
186;Laerm;55473;48.800;9.002;2023-08-17T04:03:27;46.09;37.74;60.08;;
186;Laerm;55473;48.800;9.002;2023-08-17T04:05:53;42.95;36.06;59.64;;
186;Laerm;55473;48.800;9.002;2023-08-17T04:08:19;41.98;35.29;55.20;;
186;Laerm;55473;48.800;9.002;2023-08-17T04:10:44;42.70;35.86;56.94;;
186;Laerm;55473;48.800;9.002;2023-08-17T04:13:10;44.39;35.24;62.90;;
186;Laerm;55473;48.800;9.002;2023-08-17T04:15:36;44.81;36.71;56.79;;
186;Laerm;55473;48.800;9.002;2023-08-17T04:18:02;48.10;37.14;60.16;;
186;Laerm;55473;48.800;9.002;2023-08-17T04:20:28;44.22;36.63;58.10;;
186;Laerm;55473;48.800;9.002;2023-08-17T04:22:54;43.34;36.42;56.75;;
186;Laerm;55473;48.800;9.002;2023-08-17T04:25:20;42.04;35.66;52.14;;
186;Laerm;55473;48.800;9.002;2023-08-17T04:27:46;43.81;36.55;59.84;;
186;Laerm;55473;48.800;9.002;2023-08-17T04:30:12;45.18;36.27;55.50;;
186;Laerm;55473;48.800;9.002;2023-08-17T04:32:38;46.36;35.93;59.34;;
186;Laerm;55473;48.800;9.002;2023-08-17T04:35:04;43.89;35.97;55.22;;
186;Laerm;55473;48.800;9.002;2023-08-17T04:37:30;44.74;35.75;58.37;;
186;Laerm;55473;48.800;9.002;2023-08-17T04:39:56;44.01;36.41;55.32;;
186;Laerm;55473;48.800;9.002;2023-08-17T04:42:22;51.32;36.97;62.34;;
186;Laerm;55473;48.800;9.002;2023-08-17T04:44:48;46.62;37.01;58.97;;
186;Laerm;55473;48.800;9.002;2023-08-17T04:47:14;46.41;37.38;58.30;;
186;Laerm;55473;48.800;9.002;2023-08-17T04:49:40;43.78;36.37;55.04;;
186;Laerm;55473;48.800;9.002;2023-08-17T04:52:06;44.47;37.92;58.64;;
186;Laerm;55473;48.800;9.002;2023-08-17T04:54:32;44.23;36.56;56.20;;
186;Laerm;55473;48.800;9.002;2023-08-17T04:56:57;43.11;37.16;55.90;;
186;Laerm;55473;48.800;9.002;2023-08-17T04:59:23;45.39;36.49;55.88;;
186;Laerm;55473;48.800;9.002;2023-08-17T05:01:49;46.37;36.71;56.27;;
186;Laerm;55473;48.800;9.002;2023-08-17T05:04:15;46.62;39.54;60.67;;
186;Laerm;55473;48.800;9.002;2023-08-17T05:06:41;44.76;36.53;54.22;;
186;Laerm;55473;48.800;9.002;2023-08-17T05:09:08;42.50;36.80;55.68;;
186;Laerm;55473;48.800;9.002;2023-08-17T05:11:34;44.01;37.22;55.33;;
186;Laerm;55473;48.800;9.002;2023-08-17T05:13:59;47.48;37.37;61.36;;
186;Laerm;55473;48.800;9.002;2023-08-17T05:16:25;43.52;36.38;53.70;;
186;Laerm;55473;48.800;9.002;2023-08-17T05:18:51;47.89;38.63;59.06;;
186;Laerm;55473;48.800;9.002;2023-08-17T05:21:17;43.45;37.68;52.60;;
186;Laerm;55473;48.800;9.002;2023-08-17T05:23:43;43.73;38.82;59.65;;
186;Laerm;55473;48.800;9.002;2023-08-17T05:26:09;44.04;36.82;53.89;;
186;Laerm;55473;48.800;9.002;2023-08-17T05:28:35;46.53;38.34;54.93;;
186;Laerm;55473;48.800;9.002;2023-08-17T05:31:08;46.90;36.66;55.73;;
186;Laerm;55473;48.800;9.002;2023-08-17T05:33:34;47.05;37.48;61.87;;
186;Laerm;55473;48.800;9.002;2023-08-17T05:36:00;47.32;38.38;58.15;;
186;Laerm;55473;48.800;9.002;2023-08-17T05:38:26;43.62;37.51;65.98;;
186;Laerm;55473;48.800;9.002;2023-08-17T05:40:59;43.45;37.42;54.26;;
186;Laerm;55473;48.800;9.002;2023-08-17T05:43:25;46.39;38.34;57.53;;
186;Laerm;55473;48.800;9.002;2023-08-17T05:45:51;45.89;37.85;55.98;;
186;Laerm;55473;48.800;9.002;2023-08-17T05:48:19;46.48;38.73;55.51;;
186;Laerm;55473;48.800;9.002;2023-08-17T05:50:47;44.17;37.88;55.37;;
186;Laerm;55473;48.800;9.002;2023-08-17T05:53:13;43.75;37.52;58.74;;
186;Laerm;55473;48.800;9.002;2023-08-17T05:55:39;43.96;38.16;52.79;;
186;Laerm;55473;48.800;9.002;2023-08-17T05:58:05;46.13;38.21;56.75;;
186;Laerm;55473;48.800;9.002;2023-08-17T06:00:31;45.26;38.28;54.43;;
186;Laerm;55473;48.800;9.002;2023-08-17T06:02:57;46.03;37.82;56.83;;
186;Laerm;55473;48.800;9.002;2023-08-17T06:05:30;43.97;37.55;52.82;;
186;Laerm;55473;48.800;9.002;2023-08-17T06:07:56;42.65;37.19;55.38;;
186;Laerm;55473;48.800;9.002;2023-08-17T06:10:23;43.91;37.60;55.43;;
186;Laerm;55473;48.800;9.002;2023-08-17T06:12:55;46.96;37.76;59.01;;
186;Laerm;55473;48.800;9.002;2023-08-17T06:15:23;47.07;38.78;64.62;;
186;Laerm;55473;48.800;9.002;2023-08-17T06:17:49;46.20;37.77;56.92;;
186;Laerm;55473;48.800;9.002;2023-08-17T06:20:18;43.96;37.07;56.36;;
186;Laerm;55473;48.800;9.002;2023-08-17T06:22:44;43.25;37.93;52.75;;
186;Laerm;55473;48.800;9.002;2023-08-17T06:25:11;44.18;38.92;54.39;;
186;Laerm;55473;48.800;9.002;2023-08-17T06:27:37;44.90;38.44;59.44;;
186;Laerm;55473;48.800;9.002;2023-08-17T06:30:03;46.40;37.36;57.79;;
186;Laerm;55473;48.800;9.002;2023-08-17T06:32:30;47.01;37.49;56.57;;
186;Laerm;55473;48.800;9.002;2023-08-17T06:34:56;45.95;37.71;57.20;;
186;Laerm;55473;48.800;9.002;2023-08-17T06:37:22;43.00;37.50;52.52;;
186;Laerm;55473;48.800;9.002;2023-08-17T06:39:49;43.76;37.40;59.64;;
186;Laerm;55473;48.800;9.002;2023-08-17T06:42:15;44.06;37.33;57.27;;
186;Laerm;55473;48.800;9.002;2023-08-17T06:44:41;48.52;37.28;58.27;;
186;Laerm;55473;48.800;9.002;2023-08-17T06:47:07;46.57;37.18;57.67;;
186;Laerm;55473;48.800;9.002;2023-08-17T06:49:32;43.99;38.30;51.92;;
186;Laerm;55473;48.800;9.002;2023-08-17T06:51:58;43.29;38.08;52.06;;
186;Laerm;55473;48.800;9.002;2023-08-17T06:54:24;42.86;37.61;57.62;;
186;Laerm;55473;48.800;9.002;2023-08-17T06:56:50;45.35;37.44;64.18;;
186;Laerm;55473;48.800;9.002;2023-08-17T06:59:16;45.63;38.34;57.33;;
186;Laerm;55473;48.800;9.002;2023-08-17T07:01:42;45.95;36.79;58.07;;
186;Laerm;55473;48.800;9.002;2023-08-17T07:04:08;44.96;38.63;54.77;;
186;Laerm;55473;48.800;9.002;2023-08-17T07:06:34;43.20;36.64;65.77;;
186;Laerm;55473;48.800;9.002;2023-08-17T07:09:00;42.50;36.89;52.01;;
186;Laerm;55473;48.800;9.002;2023-08-17T07:11:26;44.93;37.55;58.30;;
186;Laerm;55473;48.800;9.002;2023-08-17T07:13:52;50.52;39.25;75.10;;
186;Laerm;55473;48.800;9.002;2023-08-17T07:16:18;44.02;37.60;57.92;;
186;Laerm;55473;48.800;9.002;2023-08-17T07:18:44;47.31;39.38;58.54;;
186;Laerm;55473;48.800;9.002;2023-08-17T07:21:10;42.66;36.38;51.00;;
186;Laerm;55473;48.800;9.002;2023-08-17T07:23:36;44.29;37.82;53.03;;
186;Laerm;55473;48.800;9.002;2023-08-17T07:26:02;43.10;37.20;53.32;;
186;Laerm;55473;48.800;9.002;2023-08-17T07:28:28;46.72;37.89;56.08;;
186;Laerm;55473;48.800;9.002;2023-08-17T07:30:54;45.91;37.29;56.93;;
186;Laerm;55473;48.800;9.002;2023-08-17T07:33:20;54.08;41.46;65.70;;
186;Laerm;55473;48.800;9.002;2023-08-17T07:35:46;42.79;36.62;51.12;;
186;Laerm;55473;48.800;9.002;2023-08-17T07:38:11;42.59;36.92;58.58;;
186;Laerm;55473;48.800;9.002;2023-08-17T07:40:37;42.62;36.44;57.88;;
186;Laerm;55473;48.800;9.002;2023-08-17T07:43:03;46.19;38.08;56.47;;
186;Laerm;55473;48.800;9.002;2023-08-17T07:45:29;47.05;38.73;67.10;;
186;Laerm;55473;48.800;9.002;2023-08-17T07:47:55;48.58;38.92;60.73;;
186;Laerm;55473;48.800;9.002;2023-08-17T07:50:21;43.94;37.90;60.57;;
186;Laerm;55473;48.800;9.002;2023-08-17T07:52:47;43.93;38.50;58.11;;
186;Laerm;55473;48.800;9.002;2023-08-17T07:55:13;44.76;38.33;68.06;;
186;Laerm;55473;48.800;9.002;2023-08-17T07:57:39;43.56;37.95;55.20;;
186;Laerm;55473;48.800;9.002;2023-08-17T08:00:05;46.69;36.94;72.60;;
186;Laerm;55473;48.800;9.002;2023-08-17T08:02:31;46.45;38.64;60.09;;
186;Laerm;55473;48.800;9.002;2023-08-17T08:04:57;43.95;37.68;54.76;;
186;Laerm;55473;48.800;9.002;2023-08-17T08:07:23;43.29;38.50;52.54;;
186;Laerm;55473;48.800;9.002;2023-08-17T08:09:49;43.47;37.61;59.58;;
186;Laerm;55473;48.800;9.002;2023-08-17T08:12:15;43.42;36.95;56.69;;
186;Laerm;55473;48.800;9.002;2023-08-17T08:14:41;48.12;38.74;67.21;;
186;Laerm;55473;48.800;9.002;2023-08-17T08:17:06;47.52;38.77;58.31;;
186;Laerm;55473;48.800;9.002;2023-08-17T08:19:32;44.79;38.19;57.33;;
186;Laerm;55473;48.800;9.002;2023-08-17T08:21:58;42.80;37.04;53.61;;
186;Laerm;55473;48.800;9.002;2023-08-17T08:24:24;42.61;37.71;54.47;;
186;Laerm;55473;48.800;9.002;2023-08-17T08:26:51;44.62;37.38;68.33;;
186;Laerm;55473;48.800;9.002;2023-08-17T08:29:18;44.50;37.86;54.96;;
186;Laerm;55473;48.800;9.002;2023-08-17T08:31:44;47.51;37.29;57.92;;
186;Laerm;55473;48.800;9.002;2023-08-17T08:34:10;49.19;40.47;61.80;;
186;Laerm;55473;48.800;9.002;2023-08-17T08:36:36;42.99;37.74;54.64;;
186;Laerm;55473;48.800;9.002;2023-08-17T08:39:02;43.98;37.80;67.89;;
186;Laerm;55473;48.800;9.002;2023-08-17T08:41:29;46.34;37.73;67.58;;
186;Laerm;55473;48.800;9.002;2023-08-17T08:43:56;47.68;38.48;63.76;;
186;Laerm;55473;48.800;9.002;2023-08-17T08:46:26;46.54;38.55;70.77;;
186;Laerm;55473;48.800;9.002;2023-08-17T08:48:56;50.17;37.92;77.92;;
186;Laerm;55473;48.800;9.002;2023-08-17T08:51:27;43.43;37.55;61.60;;
186;Laerm;55473;48.800;9.002;2023-08-17T08:54:03;43.14;36.16;65.70;;
186;Laerm;55473;48.800;9.002;2023-08-17T08:56:35;43.50;37.66;58.02;;
186;Laerm;55473;48.800;9.002;2023-08-17T08:59:04;54.02;37.98;74.57;;
186;Laerm;55473;48.800;9.002;2023-08-17T09:01:31;46.65;36.58;66.89;;
186;Laerm;55473;48.800;9.002;2023-08-17T09:03:59;47.41;39.50;56.29;;
186;Laerm;55473;48.800;9.002;2023-08-17T09:06:32;51.21;37.43;64.60;;
186;Laerm;55473;48.800;9.002;2023-08-17T09:09:01;45.08;37.47;59.93;;
186;Laerm;55473;48.800;9.002;2023-08-17T09:11:28;44.48;37.81;60.80;;
186;Laerm;55473;48.800;9.002;2023-08-17T09:13:55;47.26;38.34;61.81;;
186;Laerm;55473;48.800;9.002;2023-08-17T09:16:21;48.45;36.57;62.11;;
186;Laerm;55473;48.800;9.002;2023-08-17T09:18:47;48.95;38.71;61.90;;
186;Laerm;55473;48.800;9.002;2023-08-17T09:21:25;50.10;39.09;73.14;;
186;Laerm;55473;48.800;9.002;2023-08-17T09:23:53;49.12;38.45;66.96;;
186;Laerm;55473;48.800;9.002;2023-08-17T09:26:23;46.50;37.84;66.16;;
186;Laerm;55473;48.800;9.002;2023-08-17T09:28:53;47.81;37.38;56.53;;
186;Laerm;55473;48.800;9.002;2023-08-17T09:31:24;42.77;37.14;52.90;;
186;Laerm;55473;48.800;9.002;2023-08-17T09:33:51;46.79;39.35;56.57;;
186;Laerm;55473;48.800;9.002;2023-08-17T09:36:25;43.91;37.21;55.15;;
186;Laerm;55473;48.800;9.002;2023-08-17T09:38:51;43.81;36.16;56.51;;
186;Laerm;55473;48.800;9.002;2023-08-17T09:41:18;42.59;36.54;51.28;;
186;Laerm;55473;48.800;9.002;2023-08-17T09:43:46;47.13;37.45;62.77;;
186;Laerm;55473;48.800;9.002;2023-08-17T09:46:13;42.37;37.75;53.11;;
186;Laerm;55473;48.800;9.002;2023-08-17T09:48:39;48.35;39.54;58.04;;
186;Laerm;55473;48.800;9.002;2023-08-17T09:51:08;42.44;37.24;55.54;;
186;Laerm;55473;48.800;9.002;2023-08-17T09:53:35;43.04;36.85;52.32;;
186;Laerm;55473;48.800;9.002;2023-08-17T09:56:06;42.83;37.60;59.68;;
186;Laerm;55473;48.800;9.002;2023-08-17T09:58:39;46.52;37.99;56.81;;
186;Laerm;55473;48.800;9.002;2023-08-17T10:01:05;42.52;38.09;51.58;;
186;Laerm;55473;48.800;9.002;2023-08-17T10:03:34;47.32;39.10;58.09;;
186;Laerm;55473;48.800;9.002;2023-08-17T10:06:11;44.34;37.40;52.74;;
186;Laerm;55473;48.800;9.002;2023-08-17T10:08:46;44.74;36.89;57.79;;
186;Laerm;55473;48.800;9.002;2023-08-17T10:11:18;43.89;38.39;52.76;;
186;Laerm;55473;48.800;9.002;2023-08-17T10:14:01;50.19;38.79;60.55;;
186;Laerm;55473;48.800;9.002;2023-08-17T10:17:01;48.43;38.21;59.07;;
186;Laerm;55473;48.800;9.002;2023-08-17T10:24:44;47.77;39.47;57.39;;
186;Laerm;55473;48.800;9.002;2023-08-17T10:27:11;47.43;37.60;58.52;;
186;Laerm;55473;48.800;9.002;2023-08-17T10:29:40;48.92;39.53;59.06;;
186;Laerm;55473;48.800;9.002;2023-08-17T10:32:07;47.60;36.47;60.43;;
186;Laerm;55473;48.800;9.002;2023-08-17T10:34:35;49.06;37.32;57.81;;
186;Laerm;55473;48.800;9.002;2023-08-17T10:37:01;48.02;37.18;57.56;;
186;Laerm;55473;48.800;9.002;2023-08-17T10:39:29;43.18;37.55;55.17;;
186;Laerm;55473;48.800;9.002;2023-08-17T10:41:58;47.72;38.58;58.11;;
186;Laerm;55473;48.800;9.002;2023-08-17T10:44:44;50.83;38.95;62.18;;
186;Laerm;55473;48.800;9.002;2023-08-17T10:47:32;47.83;38.03;67.50;;
186;Laerm;55473;48.800;9.002;2023-08-17T10:50:22;48.85;38.97;66.34;;
186;Laerm;55473;48.800;9.002;2023-08-17T10:52:50;43.52;36.95;51.52;;
186;Laerm;55473;48.800;9.002;2023-08-17T10:55:17;46.35;38.11;54.32;;
186;Laerm;55473;48.800;9.002;2023-08-17T10:57:44;43.70;37.24;51.61;;
186;Laerm;55473;48.800;9.002;2023-08-17T11:00:22;50.17;38.85;64.29;;
186;Laerm;55473;48.800;9.002;2023-08-17T11:03:05;47.88;38.58;56.43;;
186;Laerm;55473;48.800;9.002;2023-08-17T11:05:55;42.31;36.70;51.53;;
186;Laerm;55473;48.800;9.002;2023-08-17T11:08:23;44.56;36.06;55.39;;
186;Laerm;55473;48.800;9.002;2023-08-17T11:13:38;48.78;38.18;67.82;;
186;Laerm;55473;48.800;9.002;2023-08-17T11:16:06;45.02;38.14;55.83;;
186;Laerm;55473;48.800;9.002;2023-08-17T11:18:33;49.82;40.68;59.71;;
186;Laerm;55473;48.800;9.002;2023-08-17T11:21:02;46.13;38.49;58.03;;
186;Laerm;55473;48.800;9.002;2023-08-17T11:23:34;44.42;37.49;66.26;;
186;Laerm;55473;48.800;9.002;2023-08-17T11:26:00;46.71;37.64;76.36;;
186;Laerm;55473;48.800;9.002;2023-08-17T11:28:30;48.12;37.40;67.84;;
186;Laerm;55473;48.800;9.002;2023-08-17T11:31:06;43.46;37.48;57.17;;
186;Laerm;55473;48.800;9.002;2023-08-17T11:33:34;47.51;37.80;62.61;;
186;Laerm;55473;48.800;9.002;2023-08-17T11:36:03;43.51;37.28;54.50;;
186;Laerm;55473;48.800;9.002;2023-08-17T11:38:36;44.51;37.65;55.10;;
186;Laerm;55473;48.800;9.002;2023-08-17T11:41:04;43.16;36.92;53.45;;
186;Laerm;55473;48.800;9.002;2023-08-17T11:43:32;48.31;38.38;65.73;;
186;Laerm;55473;48.800;9.002;2023-08-17T11:46:01;49.01;37.82;62.77;;
186;Laerm;55473;48.800;9.002;2023-08-17T11:48:28;48.42;38.28;62.72;;
186;Laerm;55473;48.800;9.002;2023-08-17T11:50:55;46.22;37.70;56.12;;
186;Laerm;55473;48.800;9.002;2023-08-17T11:53:21;43.67;37.55;53.07;;
186;Laerm;55473;48.800;9.002;2023-08-17T11:55:48;43.13;37.01;54.23;;
186;Laerm;55473;48.800;9.002;2023-08-17T11:58:14;45.83;37.28;56.33;;
186;Laerm;55473;48.800;9.002;2023-08-17T12:00:42;45.13;37.12;53.93;;
186;Laerm;55473;48.800;9.002;2023-08-17T12:03:16;46.73;37.53;59.49;;
186;Laerm;55473;48.800;9.002;2023-08-17T12:05:44;42.52;36.52;58.66;;
186;Laerm;55473;48.800;9.002;2023-08-17T12:08:13;42.67;36.64;64.55;;
186;Laerm;55473;48.800;9.002;2023-08-17T12:10:40;42.68;37.05;62.76;;
186;Laerm;55473;48.800;9.002;2023-08-17T12:13:06;45.93;37.35;63.03;;
186;Laerm;55473;48.800;9.002;2023-08-17T12:15:36;48.87;37.90;56.90;;
186;Laerm;55473;48.800;9.002;2023-08-17T12:18:04;46.09;38.03;55.98;;
186;Laerm;55473;48.800;9.002;2023-08-17T12:20:33;50.76;38.78;65.14;;
186;Laerm;55473;48.800;9.002;2023-08-17T12:23:02;42.79;36.45;55.26;;
186;Laerm;55473;48.800;9.002;2023-08-17T12:25:28;42.47;36.82;58.41;;
186;Laerm;55473;48.800;9.002;2023-08-17T12:27:59;45.33;37.35;67.58;;
186;Laerm;55473;48.800;9.002;2023-08-17T12:30:31;46.38;38.00;60.74;;
186;Laerm;55473;48.800;9.002;2023-08-17T12:33:00;47.30;37.89;66.28;;
186;Laerm;55473;48.800;9.002;2023-08-17T12:35:26;43.95;37.17;61.73;;
186;Laerm;55473;48.800;9.002;2023-08-17T12:37:53;47.65;37.48;68.39;;
186;Laerm;55473;48.800;9.002;2023-08-17T12:40:21;47.21;37.27;65.38;;
186;Laerm;55473;48.800;9.002;2023-08-17T12:42:47;48.98;39.73;67.02;;
186;Laerm;55473;48.800;9.002;2023-08-17T12:45:15;49.09;39.77;59.33;;
186;Laerm;55473;48.800;9.002;2023-08-17T12:47:41;50.31;38.88;66.20;;
186;Laerm;55473;48.800;9.002;2023-08-17T12:50:08;60.18;40.90;85.72;;
186;Laerm;55473;48.800;9.002;2023-08-17T12:52:35;52.88;40.64;73.64;;
186;Laerm;55473;48.800;9.002;2023-08-17T12:55:01;54.94;43.99;75.32;;
186;Laerm;55473;48.800;9.002;2023-08-17T12:57:27;55.84;50.19;69.72;;
186;Laerm;55473;48.800;9.002;2023-08-17T12:59:55;58.15;53.40;73.42;;
186;Laerm;55473;48.800;9.002;2023-08-17T13:02:21;56.75;52.53;70.60;;
186;Laerm;55473;48.800;9.002;2023-08-17T13:04:47;56.08;52.56;68.18;;
186;Laerm;55473;48.800;9.002;2023-08-17T13:07:13;70.82;53.50;95.88;;
186;Laerm;55473;48.800;9.002;2023-08-17T13:09:39;56.00;52.43;72.55;;
186;Laerm;55473;48.800;9.002;2023-08-17T13:12:05;53.93;49.58;66.91;;
186;Laerm;55473;48.800;9.002;2023-08-17T13:14:31;63.19;45.79;92.14;;
186;Laerm;55473;48.800;9.002;2023-08-17T13:16:57;49.43;43.70;62.12;;
186;Laerm;55473;48.800;9.002;2023-08-17T13:19:23;53.30;47.57;63.81;;
186;Laerm;55473;48.800;9.002;2023-08-17T13:21:49;49.88;45.10;64.75;;
186;Laerm;55473;48.800;9.002;2023-08-17T13:24:15;47.73;42.28;64.23;;
186;Laerm;55473;48.800;9.002;2023-08-17T13:26:41;46.05;40.27;66.05;;
186;Laerm;55473;48.800;9.002;2023-08-17T13:29:07;48.85;38.55;62.61;;
186;Laerm;55473;48.800;9.002;2023-08-17T13:31:34;43.72;37.65;60.82;;
186;Laerm;55473;48.800;9.002;2023-08-17T13:34:00;47.31;38.63;62.85;;
186;Laerm;55473;48.800;9.002;2023-08-17T13:36:26;45.82;37.60;70.53;;
186;Laerm;55473;48.800;9.002;2023-08-17T13:38:51;41.95;37.06;58.74;;
186;Laerm;55473;48.800;9.002;2023-08-17T13:41:17;42.62;38.24;60.80;;
186;Laerm;55473;48.800;9.002;2023-08-17T13:43:43;43.89;37.61;60.76;;
186;Laerm;55473;48.800;9.002;2023-08-17T13:46:09;47.99;42.37;62.05;;
186;Laerm;55473;48.800;9.002;2023-08-17T13:48:35;47.71;38.63;60.37;;
186;Laerm;55473;48.800;9.002;2023-08-17T13:51:01;42.52;37.87;61.41;;
186;Laerm;55473;48.800;9.002;2023-08-17T13:53:27;53.75;36.98;67.12;;
186;Laerm;55473;48.800;9.002;2023-08-17T13:55:53;41.87;36.56;61.65;;
186;Laerm;55473;48.800;9.002;2023-08-17T13:58:19;44.57;37.69;61.31;;
186;Laerm;55473;48.800;9.002;2023-08-17T14:00:45;44.24;35.72;58.12;;
186;Laerm;55473;48.800;9.002;2023-08-17T14:03:11;46.12;37.22;57.93;;
186;Laerm;55473;48.800;9.002;2023-08-17T14:05:37;43.81;36.71;59.46;;
186;Laerm;55473;48.800;9.002;2023-08-17T14:08:03;45.17;36.44;60.19;;
186;Laerm;55473;48.800;9.002;2023-08-17T14:10:29;42.82;37.05;69.19;;
186;Laerm;55473;48.800;9.002;2023-08-17T14:12:55;43.96;35.49;56.71;;
186;Laerm;55473;48.800;9.002;2023-08-17T14:15:21;47.26;38.31;56.23;;
186;Laerm;55473;48.800;9.002;2023-08-17T14:17:48;47.34;37.63;61.34;;
186;Laerm;55473;48.800;9.002;2023-08-17T14:20:14;47.71;38.33;60.31;;
186;Laerm;55473;48.800;9.002;2023-08-17T14:22:40;42.52;35.89;60.61;;
186;Laerm;55473;48.800;9.002;2023-08-17T14:25:06;43.69;36.06;56.38;;